createdAt,value
2019-06-26T00:01:26.882Z,95402.98
2019-06-26T00:06:31.518Z,95402.55
2019-06-26T00:11:35.988Z,95394.72
2019-06-26T00:16:40.624Z,95403.18
2019-06-26T00:21:45.282Z,95407.54
2019-06-26T00:26:49.851Z,95406.42
2019-06-26T00:31:54.505Z,95406.19
2019-06-26T00:36:59.141Z,95405.08
2019-06-26T00:42:04.908Z,95403.34
2019-06-26T00:47:09.622Z,95406.61
2019-06-26T00:52:14.204Z,95402.52
2019-06-26T00:57:18.819Z,95406.25
2019-06-26T01:02:23.455Z,95410.24
2019-06-26T01:07:28.071Z,95411.89
2019-06-26T01:12:32.706Z,95416.07
2019-06-26T01:17:37.380Z,95406.55
2019-06-26T01:22:42.027Z,95411.48
2019-06-26T01:27:46.592Z,95400.89
2019-06-26T01:32:51.298Z,95420.31
2019-06-26T01:37:55.981Z,95410.83
2019-06-26T01:43:00.485Z,95411.77
2019-06-26T01:48:05.056Z,95417.23
2019-06-26T01:53:09.792Z,95418.71
2019-06-26T01:58:14.409Z,95423.83
2019-06-26T02:03:19.089Z,95422.09
2019-06-26T02:08:23.649Z,95418.84
2019-06-26T02:13:28.130Z,95427.19
2019-06-26T02:18:36.885Z,95423.23
2019-06-26T02:23:41.545Z,95421.75
2019-06-26T02:28:46.084Z,95430.23
2019-06-26T02:33:50.578Z,95427.05
2019-06-26T02:38:55.244Z,95433.63
2019-06-26T02:43:59.873Z,95431.96
2019-06-26T02:49:04.504Z,95436.51
2019-06-26T02:54:09.111Z,95431.02
2019-06-26T02:59:13.780Z,95431.25
2019-06-26T03:04:18.310Z,95421.55
2019-06-26T03:09:23.071Z,95427.37
2019-06-26T03:14:27.582Z,95432.93
2019-06-26T03:19:32.131Z,95438.66
2019-06-26T03:24:36.768Z,95435.61
2019-06-26T03:29:41.452Z,95439.29
2019-06-26T03:34:46.000Z,95440.20
2019-06-26T03:39:50.568Z,95437.00
2019-06-26T03:44:55.154Z,95435.55
2019-06-26T03:49:59.743Z,95425.32
2019-06-26T03:55:08.647Z,95424.34
2019-06-26T04:00:13.892Z,95425.25
2019-06-26T04:05:18.533Z,95434.98
2019-06-26T04:10:23.171Z,95433.47
2019-06-26T04:15:40.791Z,95443.20
2019-06-26T04:20:34.275Z,95451.41
2019-06-26T04:25:40.685Z,95455.68
2019-06-26T04:30:45.282Z,95444.24
2019-06-26T04:35:50.004Z,95446.32
2019-06-26T04:40:54.802Z,95453.86
2019-06-26T04:45:59.398Z,95458.77
2019-06-26T04:51:03.965Z,95460.76
2019-06-26T04:56:08.632Z,95457.20
2019-06-26T05:01:13.331Z,95460.45
2019-06-26T05:06:18.077Z,95461.37
2019-06-26T05:11:22.699Z,95465.54
2019-06-26T05:16:27.471Z,95471.38
2019-06-26T05:21:32.099Z,95473.47
2019-06-26T05:26:36.652Z,95477.52
2019-06-26T05:31:41.265Z,95478.74
2019-06-26T05:36:46.091Z,95486.39
2019-06-26T05:41:50.748Z,95492.33
2019-06-26T05:46:55.414Z,95495.99
2019-06-26T05:52:02.075Z,95494.12
2019-06-26T05:57:06.373Z,95496.40
2019-06-26T06:02:11.068Z,95500.86
2019-06-26T06:07:15.665Z,95503.97
2019-06-26T06:12:21.412Z,95501.39
2019-06-26T06:17:26.050Z,95506.34
2019-06-26T06:22:30.650Z,95503.07
2019-06-26T06:27:35.262Z,95516.90
2019-06-26T06:32:39.883Z,95512.23
2019-06-26T06:37:44.398Z,95520.36
2019-06-26T06:42:48.977Z,95513.70
2019-06-26T06:47:53.457Z,95511.79
2019-06-26T06:52:58.141Z,95514.75
2019-06-26T06:58:03.810Z,95520.30
2019-06-26T07:03:08.375Z,95513.13
2019-06-26T07:08:13.084Z,95511.97
2019-06-26T07:13:17.704Z,95515.48
2019-06-26T07:18:22.408Z,95515.09
2019-06-26T07:23:27.105Z,95527.13
2019-06-26T07:28:31.715Z,95529.91
2019-06-26T07:33:37.308Z,95538.91
2019-06-26T07:38:41.868Z,95538.02
2019-06-26T07:43:46.519Z,95544.33
2019-06-26T07:48:51.117Z,95543.70
2019-06-26T07:53:55.685Z,95530.44
2019-06-26T07:59:00.259Z,95534.11
2019-06-26T08:04:04.995Z,95534.13
2019-06-26T08:09:09.600Z,95536.05
2019-06-26T08:14:14.151Z,95533.77
2019-06-26T08:19:18.781Z,95534.44
2019-06-26T08:24:23.367Z,95539.42
2019-06-26T08:29:27.925Z,95546.30
2019-06-26T08:34:32.393Z,95538.52
2019-06-26T08:39:37.084Z,95545.25
2019-06-26T08:44:43.137Z,95545.85
2019-06-26T08:49:47.688Z,95554.73
2019-06-26T08:54:52.312Z,95558.56
2019-06-26T08:59:56.915Z,95555.84
2019-06-26T09:05:01.459Z,95562.08
2019-06-26T09:10:08.027Z,95557.53
2019-06-26T09:15:13.109Z,95564.08
2019-06-26T09:20:20.754Z,95562.53
2019-06-26T09:25:25.428Z,95547.88
2019-06-26T09:30:30.384Z,95552.13
2019-06-26T09:35:35.123Z,95559.56
2019-06-26T09:40:39.918Z,95554.16
2019-06-26T09:45:45.641Z,95546.53
2019-06-26T09:50:50.701Z,95539.98
2019-06-26T09:55:55.371Z,95538.70
2019-06-26T10:01:00.043Z,95557.81
2019-06-26T10:06:04.637Z,95537.55
2019-06-26T10:11:09.264Z,95537.16
2019-06-26T10:16:13.945Z,95533.98
2019-06-26T10:21:18.926Z,95528.00
2019-06-26T10:26:23.600Z,95528.52
2019-06-26T10:31:28.080Z,95532.50
2019-06-26T10:36:32.797Z,95522.36
2019-06-26T10:41:37.493Z,95514.51
2019-06-26T10:46:42.127Z,95513.51
2019-06-26T10:51:46.932Z,95502.31
2019-06-26T10:56:51.547Z,95494.23
2019-06-26T11:01:56.192Z,95496.16
2019-06-26T11:07:00.891Z,95495.23
2019-06-26T11:12:05.497Z,95483.67
2019-06-26T11:17:10.120Z,95487.48
2019-06-26T11:22:14.684Z,95467.45
2019-06-26T11:27:19.223Z,95485.30
2019-06-26T11:32:23.951Z,95460.66
2019-06-26T11:37:28.582Z,95471.45
2019-06-26T11:42:33.330Z,95486.77
2019-06-26T11:47:38.268Z,95486.16
2019-06-26T11:52:42.927Z,95476.35
2019-06-26T11:57:47.971Z,95457.30
2019-06-26T12:02:52.591Z,95468.21
2019-06-26T12:07:57.264Z,95477.91
2019-06-26T12:13:04.265Z,95447.52
2019-06-26T12:18:08.134Z,95441.95
2019-06-26T12:23:12.746Z,95438.35
2019-06-26T12:28:17.500Z,95433.80
2019-06-26T12:33:22.105Z,95439.83
2019-06-26T12:38:26.693Z,95422.50
2019-06-26T12:43:31.388Z,95436.89
2019-06-26T12:48:37.484Z,95427.19
2019-06-26T12:53:42.042Z,95428.63
2019-06-26T12:58:46.678Z,95423.09
2019-06-26T13:03:51.497Z,95420.55
2019-06-26T13:08:56.231Z,95423.75
2019-06-26T13:14:03.027Z,95389.20
2019-06-26T13:19:07.117Z,95415.88
2019-06-26T13:24:11.713Z,95401.89
2019-06-26T13:29:17.952Z,95386.54
2019-06-26T13:34:23.581Z,95369.46
2019-06-26T13:39:28.210Z,95395.89
2019-06-26T13:44:32.873Z,95386.14
2019-06-26T13:49:37.427Z,95385.27
2019-06-26T13:54:41.993Z,95366.05
2019-06-26T13:59:46.671Z,95369.22
2019-06-26T14:04:51.198Z,95378.34
2019-06-26T14:09:55.765Z,95371.42
2019-06-26T14:15:00.260Z,95361.84
2019-06-26T14:20:06.481Z,95357.70
2019-06-26T14:25:11.308Z,95357.56
2019-06-26T14:30:16.291Z,95368.69
2019-06-26T14:35:21.018Z,95395.16
2019-06-26T14:40:25.654Z,95351.89
2019-06-26T14:45:30.218Z,95347.81
2019-06-26T14:50:34.866Z,95346.66
2019-06-26T14:55:39.606Z,95339.05
2019-06-26T15:00:44.236Z,95348.32
2019-06-26T15:05:48.898Z,95337.73
2019-06-26T15:10:53.461Z,95341.09
2019-06-26T15:15:58.172Z,95325.36
2019-06-26T15:21:02.821Z,95327.97
2019-06-26T15:26:07.322Z,95334.41
2019-06-26T15:31:12.036Z,95338.40
2019-06-26T15:36:16.656Z,95332.17
2019-06-26T15:41:21.452Z,95334.64
2019-06-26T15:46:26.065Z,95332.81
2019-06-26T15:51:30.693Z,95333.44
2019-06-26T15:56:35.393Z,95333.14
2019-06-26T16:01:39.878Z,95331.83
2019-06-26T16:06:44.431Z,95325.26
2019-06-26T16:11:49.014Z,95340.02
2019-06-26T16:16:55.341Z,95356.62
2019-06-26T16:21:59.877Z,95369.91
2019-06-26T16:27:08.507Z,95374.87
2019-06-26T16:32:14.021Z,95355.17
2019-06-26T16:37:18.647Z,95357.75
2019-06-26T16:42:23.137Z,95354.34
2019-06-26T16:47:27.910Z,95337.86
2019-06-26T16:52:47.837Z,95342.00
2019-06-26T16:57:38.869Z,95335.33
2019-06-26T17:02:43.507Z,95345.52
2019-06-26T17:07:48.207Z,95329.98
2019-06-26T17:12:52.779Z,95329.27
2019-06-26T17:17:57.403Z,95316.48
2019-06-26T17:23:06.013Z,95312.16
2019-06-26T17:28:09.859Z,95326.24
2019-06-26T17:33:14.432Z,95324.94
2019-06-26T17:38:19.120Z,95306.03
2019-06-26T17:43:23.711Z,95293.50
2019-06-26T17:48:28.380Z,95314.63
2019-06-26T17:53:32.965Z,95305.37
2019-06-26T17:58:37.584Z,95311.06
2019-06-26T18:03:42.176Z,95313.70
2019-06-26T18:08:46.752Z,95315.84
2019-06-26T18:13:51.266Z,95319.96
2019-06-26T18:18:55.876Z,95313.57
2019-06-26T18:24:00.381Z,95316.94
2019-06-26T18:29:05.145Z,95323.52
2019-06-26T18:34:09.842Z,95328.90
2019-06-26T18:39:14.462Z,95338.86
2019-06-26T18:44:18.936Z,95352.41
2019-06-26T18:49:23.514Z,95352.84
2019-06-26T18:54:28.062Z,95362.55
2019-06-26T18:59:32.689Z,95360.80
2019-06-26T19:04:37.385Z,95365.84
2019-06-26T19:09:42.158Z,95355.41
2019-06-26T19:14:46.954Z,95356.91
2019-06-26T19:19:52.678Z,95365.59
2019-06-26T19:24:57.453Z,95361.20
2019-06-26T19:30:04.815Z,95353.58
2019-06-26T19:35:19.227Z,95358.13
2019-06-26T19:40:17.778Z,95357.34
2019-06-26T19:45:22.874Z,95352.53
2019-06-26T19:50:27.597Z,95356.88
2019-06-26T19:55:32.361Z,95354.41
2019-06-26T20:00:37.013Z,95355.14
2019-06-26T20:05:41.858Z,95361.16
2019-06-26T20:10:47.183Z,95361.14
2019-06-26T20:15:52.377Z,95362.94
2019-06-26T20:20:58.278Z,95368.53
2019-06-26T20:26:04.172Z,95376.89
2019-06-26T20:31:19.532Z,95372.95
2019-06-26T20:36:27.789Z,95373.17
2019-06-26T20:41:33.071Z,95368.06
2019-06-26T20:59:18.989Z,95361.31
2019-06-26T21:04:23.990Z,95366.08
2019-06-26T21:09:28.788Z,95363.85
2019-06-26T21:14:33.903Z,95359.12
2019-06-26T21:19:38.717Z,95355.47
2019-06-26T21:24:43.310Z,95350.98
2019-06-26T21:29:47.993Z,95348.95
2019-06-26T21:34:57.609Z,95356.38
2019-06-26T21:40:02.205Z,95351.70
2019-06-26T21:45:07.406Z,95359.06
2019-06-26T21:50:13.245Z,95359.28
2019-06-26T21:55:33.226Z,95355.77
2019-06-26T22:00:42.516Z,95349.41
2019-06-26T22:06:05.606Z,95347.76
2019-06-26T22:11:11.794Z,95343.53
2019-06-26T22:16:16.581Z,95349.47
2019-06-26T22:21:21.208Z,95351.25
2019-06-26T22:26:25.842Z,95339.61
2019-06-26T22:31:30.640Z,95343.34
2019-06-26T22:36:35.281Z,95339.59
2019-06-26T22:41:39.988Z,95333.55
2019-06-26T22:46:44.584Z,95329.16
2019-06-26T22:51:49.603Z,95331.66
2019-06-26T22:56:54.159Z,95330.70
2019-06-26T23:01:58.812Z,95320.72
2019-06-26T23:07:03.403Z,95314.36
2019-06-26T23:12:08.063Z,95312.38
2019-06-26T23:17:13.776Z,95311.45
2019-06-26T23:22:18.355Z,95308.11
2019-06-26T23:27:22.985Z,95312.17
2019-06-26T23:32:27.543Z,95302.28
2019-06-26T23:37:32.154Z,95303.18
2019-06-26T23:42:36.874Z,95304.54
2019-06-26T23:47:41.471Z,95300.16
2019-06-26T23:52:46.043Z,95300.55
2019-06-26T23:57:58.885Z,95293.45
